Date,TemperatureHighF,TemperatureAvgF,TemperatureLowF,DewpointHighF,DewpointAvgF,DewpointLowF,HumidityHigh,HumidityAvg,HumidityLow,PressureMaxIn,PressureMinIn,WindSpeedMaxMPH,WindSpeedAvgMPH,GustSpeedMaxMPH,PrecipitationSumIn
2013-1-1,51.1,49.2,45.7,47.2,43.1,34.5,89,80,61,30.14,29.95,0,0,0,1.00
2013-1-2,50.5,44.5,39.9,47.7,39.7,34.6,90,83,76,30.17,29.95,4,0,6,0.37
2013-1-3,44.4,39.9,37.9,35.3,32.6,27.2,84,75,64,30.31,30.13,0,0,0,0.02
2013-1-4,48.6,39.4,31.3,29.5,25.6,23.4,76,59,40,30.39,30.29,0,0,0,0.00
2013-1-5,48.7,40.4,30.9,31.8,27.0,21.9,71,59,48,30.39,30.25,0,0,0,0.00
2013-1-6,49.5,44.1,41.2,39.4,35.2,31.3,78,71,61,30.29,30.15,0,0,0,0.00
2013-1-7,54.3,43.8,33.6,36.0,31.6,26.8,77,63,46,30.38,30.25,0,0,0,0.00
2013-1-8,52.5,46.0,39.4,40.9,35.5,29.8,70,67,62,30.41,30.30,0,0,0,0.00
2013-1-9,64.6,56.4,49.1,56.1,47.9,39.7,76,73,70,30.43,30.34,0,0,0,0.00
2013-1-10,66.2,60.6,56.5,58.6,54.5,48.6,88,80,74,30.42,30.25,0,0,1,0.06
2013-1-11,67.1,62.6,59.9,63.1,59.5,56.4,91,89,86,30.24,30.14,0,0,0,0.14
2013-1-12,72.1,64.1,59.5,64.0,58.6,54.3,91,83,68,30.19,30.08,0,0,0,0.04
2013-1-13,70.3,64.2,59.2,62.0,58.5,54.1,88,82,73,30.15,30.04,0,0,0,0.02
2013-1-14,64.6,58.8,48.7,62.0,55.5,45.7,91,89,83,30.15,30.05,0,0,1,0.67
2013-1-15,62.8,55.4,48.7,60.5,52.8,46.0,92,91,90,30.14,29.98,0,0,2,0.55
2013-1-16,63.3,58.8,53.2,61.0,56.4,50.7,92,92,91,30.03,29.93,1,0,1,0.39
2013-1-17,53.4,46.1,37.2,51.1,43.4,33.4,92,90,86,30.25,29.79,10,0,10,0.49
2013-1-18,51.6,41.1,33.1,35.9,31.7,28.3,86,71,50,30.50,30.25,6,0,6,0.02
2013-1-19,53.8,43.4,31.8,36.2,31.1,25.8,79,63,46,30.45,30.23,4,0,4,0.00
2013-1-20,59.7,48.2,37.9,40.6,35.2,29.4,72,61,48,30.23,30.11,7,0,7,0.00
2013-1-21,55.2,45.8,37.2,38.1,31.8,20.7,77,59,45,30.18,30.09,6,1,9,0.00
2013-1-22,43.0,36.7,30.0,20.9,17.9,13.8,52,46,39,30.32,30.16,8,1,8,0.00
2013-1-23,54.1,41.9,30.9,37.2,25.0,15.5,63,51,44,30.38,30.18,7,0,7,0.00
2013-1-24,53.1,47.8,38.5,41.1,30.7,16.2,72,53,34,30.36,30.15,7,1,9,0.00
2013-1-25,43.5,38.4,32.9,28.4,21.6,14.9,59,51,44,30.38,30.13,6,0,6,0.00
2013-1-26,57.4,45.2,38.3,34.7,31.2,26.6,82,60,36,30.29,30.14,6,1,7,0.00
2013-1-27,52.0,45.8,40.5,36.7,32.1,27.2,68,59,52,30.45,30.28,6,0,6,0.00
2013-1-28,56.8,48.2,43.0,46.3,37.8,30.8,76,67,60,30.41,30.28,4,0,4,0.00
2013-1-29,70.7,58.2,46.2,59.2,50.8,39.1,85,77,66,30.28,30.00,4,0,7,0.02
2013-1-30,68.2,60.1,43.2,63.3,56.0,35.1,89,86,73,30.00,29.59,10,1,10,0.77
2013-1-31,46.9,40.5,33.4,35.6,27.7,25.3,81,61,45,30.17,29.84,11,1,11,0.41
2013-2-1,42.3,38.2,31.1,29.6,19.7,13.6,66,48,33,30.36,30.13,10,0,10,0.00
2013-2-2,51.6,39.0,27.7,35.8,23.6,14.6,83,56,35,30.35,30.11,4,0,4,0.20
2013-2-3,55.2,44.4,33.6,38.9,31.9,27.3,87,64,39,30.14,30.00,8,1,12,0.20
2013-2-4,52.0,42.3,34.5,32.9,28.6,24.6,70,59,47,30.13,30.01,4,0,4,0.00
2013-2-5,59.2,49.0,38.1,48.6,39.3,28.0,80,69,61,30.06,29.97,4,0,57,0.00
2013-2-6,65.8,54.9,44.8,51.6,41.3,33.3,87,63,38,30.19,30.05,0,0,3,0.00
2013-2-7,50.7,46.5,44.2,41.9,38.6,32.8,87,75,53,30.16,29.90,5,0,5,0.29
2013-2-8,53.4,47.8,39.2,48.1,42.4,31.9,88,82,68,30.18,29.94,5,0,6,0.02
2013-2-9,60.6,46.1,34.3,39.0,32.8,28.6,80,62,39,30.31,30.16,0,0,0,0.00
2013-2-10,59.7,50.3,43.3,48.0,39.6,29.9,89,67,57,30.31,30.04,57,0,57,0.94
2013-2-11,58.1,53.2,48.2,55.2,50.3,45.0,91,90,88,30.15,30.03,57,0,57,1.22
2013-2-12,54.3,47.6,44.4,45.5,42.7,40.2,90,83,69,30.13,29.86,2,0,6,0.29
2013-2-13,51.6,45.5,39.9,47.3,40.8,33.3,91,84,74,29.98,29.76,8,1,8,0.12
2013-2-14,55.4,44.9,38.5,38.0,34.4,32.2,79,67,49,30.10,29.97,8,1,8,0.02
2013-2-15,60.6,48.8,38.5,43.0,35.7,31.9,79,62,42,30.13,30.00,6,0,6,0.00
2013-2-16,44.6,38.9,31.1,33.7,23.4,13.8,70,55,38,30.15,29.97,8,1,11,0.00
2013-2-17,46.6,35.5,25.9,19.2,16.9,14.4,62,48,32,30.29,30.14,7,0,8,0.00
2013-2-18,58.8,44.1,29.5,32.5,26.0,18.5,68,50,36,30.36,30.14,0,0,2,0.00
2013-2-19,56.8,46.5,40.6,45.5,32.3,21.6,85,60,39,30.16,30.03,10,0,10,0.35
2013-2-20,51.1,41.8,33.6,23.2,18.1,14.1,54,39,28,30.20,30.09,8,1,8,0.04
2013-2-21,63.7,50.2,34.3,38.0,26.1,16.7,63,40,29,30.18,29.97,5,0,5,0.06
2013-2-22,141.6,42.9,41.0,39.0,38.1,37.3,88,85,65,30.15,30.04,5,0,7,1.14
2013-2-23,49.8,45.4,40.6,46.3,42.1,37.3,89,88,87,30.05,29.86,2,0,3,0.96
2013-2-24,62.4,51.1,40.1,45.7,38.2,30.6,89,64,39,30.05,29.92,0,0,0,0.02
2013-2-25,48.4,45.8,40.6,36.3,33.4,30.9,83,62,55,30.05,29.86,1,0,4,0.02
2013-2-26,53.2,42.6,36.7,48.2,37.6,33.3,89,83,68,29.87,29.58,10,0,10,1.12
2013-2-27,59.5,48.8,41.2,39.3,34.8,32.3,72,60,41,29.92,29.80,7,0,7,0.08
2013-2-28,48.7,42.4,37.0,34.8,29.6,25.6,74,61,48,30.01,29.87,6,0,6,0.00
2013-3-1,41.4,38.3,35.8,28.3,26.6,24.2,69,63,58,30.02,29.96,6,0,6,0.00
2013-3-2,38.8,36.2,33.8,29.2,27.0,24.1,77,69,60,30.03,29.95,8,0,10,0.00
2013-3-3,41.9,34.5,30.6,24.1,21.6,19.4,71,60,46,30.09,30.00,7,0,9,0.00
2013-3-4,59.7,44.2,28.8,33.1,25.8,18.5,67,50,35,30.18,30.01,0,0,0,0.00
2013-3-5,64.2,53.1,39.6,53.7,41.6,26.8,83,65,49,30.07,29.72,16,1,16,0.08
2013-3-6,42.8,37.4,31.8,28.4,25.2,19.9,73,61,55,30.19,29.91,14,2,14,0.02
2013-3-7,58.8,44.0,32.5,35.1,29.5,25.0,75,58,39,30.26,30.15,6,0,6,0.00
2013-3-8,63.3,48.0,32.7,34.3,28.7,23.3,73,50,33,30.32,30.21,3,0,5,0.00
2013-3-9,62.2,52.2,41.4,35.8,30.3,22.7,53,43,36,30.33,30.21,2,0,3,0.00
2013-3-10,71.8,60.0,49.1,41.7,37.7,32.6,56,44,33,30.22,30.08,6,0,7,0.00
2013-3-11,66.7,57.2,49.1,54.4,49.3,39.1,88,76,54,30.10,29.83,3,0,9,0.94
2013-3-12,58.6,48.4,39.0,45.0,36.5,32.8,88,66,44,30.12,29.86,7,2,8,0.82
2013-3-13,55.6,47.1,38.5,33.6,28.7,21.5,71,50,32,30.26,30.10,10,1,12,0.00
2013-3-14,55.2,42.6,30.2,25.0,21.0,17.2,60,44,28,30.37,30.23,7,1,7,0.00
2013-3-15,74.1,56.0,36.5,46.0,35.6,22.1,70,48,35,30.25,30.01,3,0,3,0.00
2013-3-16,76.8,64.8,52.3,43.5,41.7,39.6,63,45,29,30.05,29.91,4,0,4,0.00
2013-3-17,69.6,62.5,53.8,53.7,48.3,41.3,74,60,46,30.04,29.94,1,0,1,0.00
2013-3-18,65.1,56.9,48.2,55.9,50.6,44.5,87,80,67,30.02,29.83,0,0,4,0.53
2013-3-19,64.0,53.6,45.0,45.5,37.6,28.8,89,59,34,30.08,29.89,6,1,7,0.53
2013-3-20,57.4,50.4,43.7,28.6,24.3,21.1,43,36,29,30.15,29.93,8,1,10,0.00
2013-3-21,48.7,41.6,31.8,27.5,20.1,15.3,63,44,29,30.00,29.91,8,1,8,0.00
2013-3-22,57.9,45.0,38.8,33.3,25.6,17.0,57,47,37,30.08,29.97,4,0,4,0.00
2013-3-23,54.9,48.6,43.3,49.1,42.1,32.4,86,78,57,30.04,29.76,4,0,5,0.75
2013-3-24,51.6,48.6,43.0,48.1,44.7,32.2,90,87,65,29.86,29.54,6,0,9,0.96
2013-3-25,46.9,39.2,35.2,32.0,25.7,21.7,66,58,46,30.08,29.69,10,3,10,0.02
2013-3-26,40.8,36.3,32.4,26.3,24.2,21.6,72,62,54,30.28,30.05,7,2,8,0.00
2013-3-27,54.0,42.5,31.6,30.0,26.1,22.3,72,54,38,30.34,30.24,6,1,7,0.00
2013-3-28,61.0,48.5,35.8,33.6,28.7,25.3,68,48,31,30.34,30.24,8,0,8,0.00
2013-3-29,69.6,55.4,41.7,39.5,34.2,28.3,65,46,33,30.34,30.17,6,0,6,0.00
2013-3-30,73.9,60.3,51.1,51.4,42.3,34.4,82,53,41,30.20,30.05,4,0,5,0.26
2013-3-31,68.2,60.9,56.1,57.0,53.5,50.5,87,77,62,30.06,29.90,5,0,6,0.26
2013-4-1,72.3,62.3,55.4,54.9,48.6,41.6,89,64,36,30.05,29.89,6,0,8,0.63
2013-4-2,68.2,57.8,49.1,41.7,37.3,30.6,61,47,35,30.20,30.04,5,0,5,0.00
2013-4-3,63.0,53.8,47.1,41.7,34.3,27.4,79,49,38,30.20,30.10,1,0,1,0.16
2013-4-4,48.0,42.8,40.1,41.7,38.8,36.5,87,86,79,30.18,29.99,4,0,6,0.59
2013-4-5,63.3,50.2,39.9,50.7,41.2,36.3,89,74,46,30.08,29.95,0,0,2,0.16
2013-4-6,73.9,59.7,45.5,48.7,40.7,35.2,69,51,35,30.22,30.07,0,0,0,0.14
2013-4-7,76.8,62.6,47.5,54.4,46.1,38.7,74,56,40,30.22,30.08,0,0,0,0.00
2013-4-8,78.1,66.6,54.7,58.4,52.0,46.3,78,60,48,30.18,30.07,0,0,0,0.00
2013-4-9,82.0,69.5,57.2,62.5,55.3,50.4,80,62,45,30.21,30.10,0,0,0,0.00
2013-4-10,84.9,71.8,58.3,64.4,56.7,51.6,80,60,46,30.15,29.96,0,0,0,0.00
2013-4-11,78.6,68.1,59.2,66.3,58.9,51.6,88,73,60,29.97,29.71,2,0,2,1.18
2013-4-12,67.3,61.7,55.8,99.9,50.2,38.8,90,67,40,29.95,29.68,2,0,2,1.35
2013-4-13,75.9,63.9,50.2,45.0,41.7,38.9,68,46,32,30.06,29.93,0,0,0,0.00
2013-4-14,62.2,56.8,53.8,52.5,45.8,39.1,87,68,48,30.08,29.91,0,0,0,0.18
2013-4-15,71.2,62.9,56.1,61.4,56.6,51.9,89,80,68,30.16,29.94,0,0,0,0.10
2013-4-16,83.3,69.9,59.0,66.4,60.5,54.8,88,73,56,30.26,30.16,0,0,0,0.00
2013-4-17,86.2,73.2,63.7,67.8,61.8,57.7,84,69,53,30.25,30.10,0,0,0,0.00
2013-4-18,82.9,71.4,61.5,64.8,59.9,56.6,86,68,53,30.15,29.93,0,0,0,0.00
2013-4-19,70.9,59.6,46.6,64.0,53.1,39.4,87,79,66,30.06,29.82,0,0,0,0.31
2013-4-20,64.6,52.7,40.8,40.5,36.2,31.6,76,55,39,30.24,30.05,0,0,0,0.04
2013-4-21,71.8,57.8,45.0,47.6,40.4,33.3,71,53,39,30.33,30.24,0,0,0,0.00
2013-4-22,72.5,59.8,49.6,48.6,43.7,39.0,68,56,43,30.32,30.16,2,0,2,0.00
2013-4-23,76.3,61.9,49.6,51.2,45.1,36.9,67,55,41,30.25,30.10,0,0,0,0.00
2013-4-24,77.0,63.3,55.8,59.6,54.0,47.8,86,72,54,30.16,30.10,0,0,0,0.08
2013-4-25,71.4,58.0,46.8,54.6,42.7,34.5,86,61,32,30.32,30.15,0,0,0,0.08
2013-4-26,78.8,63.1,47.8,49.1,41.9,33.8,60,47,35,30.38,30.27,0,0,0,0.00
2013-4-27,75.0,65.5,58.8,55.7,50.8,46.5,76,60,49,30.33,30.16,0,0,0,0.00
2013-4-28,61.7,58.4,32.5,58.3,54.5,52.1,91,87,76,30.20,30.03,0,0,0,1.43
2013-4-29,70.7,61.4,55.9,65.2,57.2,53.3,92,86,76,30.07,29.95,0,0,0,0.65
2013-4-30,75.6,66.0,59.2,66.5,59.3,55.7,90,80,65,30.11,29.98,0,0,0,0.00
2013-5-1,68.4,63.5,60.6,58.2,56.4,53.7,86,78,68,30.20,30.10,0,0,0,0.00
2013-5-2,67.1,61.7,58.8,59.7,56.0,53.0,86,82,77,30.20,30.13,0,0,0,0.00
2013-5-3,62.8,60.9,58.8,56.3,55.2,53.8,85,81,77,30.15,29.97,0,0,0,0.00
2013-5-4,60.1,53.8,50.2,54.3,50.3,47.0,92,88,78,29.99,29.86,5,0,6,1.55
2013-5-5,65.7,54.7,49.1,59.5,50.9,46.6,92,87,73,29.88,29.77,1,0,1,2.35
2013-5-6,56.1,50.6,45.0,51.1,47.3,42.3,90,88,82,29.93,29.84,0,0,0,0.31
2013-5-7,66.0,55.9,49.1,56.3,50.7,46.6,91,83,69,30.02,29.88,0,0,0,0.10
2013-5-8,74.8,63.0,51.4,59.9,54.2,47.6,88,74,56,30.10,29.99,0,0,0,0.02
2013-5-9,80.1,68.6,58.8,63.7,57.4,54.0,84,69,52,30.15,30.05,2,0,2,0.00
2013-5-10,77.7,68.5,59.2,63.5,58.3,54.2,85,71,57,30.13,29.99,0,0,2,0.00
2013-5-11,73.9,67.7,62.1,64.5,60.5,56.6,86,78,70,30.03,29.92,1,0,2,0.02
2013-5-12,72.3,62.8,56.3,59.0,48.7,38.5,87,63,40,30.12,29.97,5,0,7,0.02
2013-5-13,71.8,59.5,48.2,41.9,38.5,35.3,64,47,33,30.26,30.11,0,0,0,0.00
2013-5-14,79.2,65.0,49.8,55.7,48.8,40.1,74,57,41,30.28,30.14,0,0,0,0.00
2013-5-15,85.8,72.4,61.7,60.7,55.5,51.8,72,57,41,30.20,30.05,0,0,0,0.00
2013-5-16,83.8,72.5,65.8,66.4,58.7,53.9,75,63,51,30.13,30.02,2,0,4,0.00
2013-5-17,83.3,71.6,62.8,65.3,58.4,53.5,80,64,47,30.13,30.04,3,0,4,0.12
2013-5-18,71.8,67.2,61.9,66.0,62.5,58.3,88,85,80,30.12,30.05,1,0,1,0.33
2013-5-19,69.4,66.4,63.1,66.7,63.2,60.5,92,90,86,30.13,30.01,0,0,0,0.51
2013-5-20,81.9,71.2,62.2,73.9,65.8,59.7,92,84,70,30.14,30.04,0,0,0,0.10
2013-5-21,86.4,73.8,66.9,72.9,67.0,63.2,89,80,62,30.08,29.94,0,0,0,0.39
2013-5-22,85.8,73.0,64.2,72.8,65.7,61.3,91,79,60,30.01,29.89,1,0,57,0.39
2013-5-23,83.1,74.6,67.8,66.3,61.8,56.6,86,66,49,30.01,29.94,6,0,6,0.00
2013-5-24,78.1,68.7,63.0,57.5,52.5,45.0,72,57,41,30.23,30.00,5,0,5,0.00
2013-5-25,80.4,66.6,54.3,54.3,47.6,43.1,69,52,38,30.34,30.20,0,0,0,0.00
2013-5-26,84.7,70.6,57.9,57.7,51.8,45.8,71,53,35,30.28,30.17,0,0,0,0.00
2013-5-27,88.2,73.7,61.7,64.7,57.2,51.3,72,57,40,30.25,30.13,0,0,0,0.00
2013-5-28,90.1,74.3,65.8,66.6,60.2,57.2,78,63,42,30.22,30.14,0,0,0,0.00
2013-5-29,86.9,73.6,63.5,68.3,62.1,57.5,82,68,48,30.25,30.14,0,0,0,0.00
2013-5-30,84.4,74.6,67.3,69.3,64.2,60.5,82,71,58,30.26,30.14,0,0,0,0.00
2013-5-31,88.9,76.0,68.2,70.1,64.7,62.0,83,69,51,30.22,30.10,0,0,0,0.00
2013-6-1,84.0,75.8,67.6,70.5,65.9,61.8,83,72,62,30.13,30.02,0,0,0,0.00
2013-6-2,84.9,74.4,68.2,73.0,67.2,64.2,89,79,66,30.06,29.91,0,0,0,0.45
2013-6-3,81.7,73.4,67.8,72.7,67.5,64.4,92,82,68,30.00,29.90,0,0,0,0.45
2013-6-4,86.2,77.4,68.2,71.4,66.2,62.8,84,69,55,30.04,29.97,0,0,0,0.00
2013-6-5,84.6,75.5,69.4,73.3,68.6,66.2,90,80,67,30.06,29.91,0,0,0,1.75
2013-6-6,74.1,71.2,68.7,71.1,68.2,66.0,92,90,87,29.98,29.79,0,0,0,1.77
2013-6-7,82.6,71.0,67.5,72.0,66.8,64.7,91,87,67,29.90,29.74,0,0,0,0.35
2013-6-8,80.1,72.7,66.0,70.1,66.2,63.0,91,81,69,30.11,29.89,0,0,0,0.02
2013-6-9,79.3,72.5,68.7,73.8,68.3,65.2,90,87,79,30.13,30.02,0,0,0,0.39
2013-6-10,74.1,70.1,67.8,71.5,67.5,65.1,92,91,90,30.06,29.98,57,0,57,0.35
2013-6-11,86.7,77.4,69.6,75.2,70.7,67.2,92,81,65,30.09,30.00,57,0,57,0.02
2013-6-12,90.9,80.1,73.2,77.4,72.9,69.2,88,79,63,30.10,30.01,3,0,3,0.04
2013-6-13,90.3,79.2,67.3,74.3,70.3,62.1,90,75,56,30.04,29.80,2,0,5,0.84
2013-6-14,85.8,73.9,-4.0,69.4,64.4,60.1,91,73,51,30.03,29.88,0,0,0,0.84
2013-6-15,88.3,74.6,65.3,67.8,62.0,58.8,81,66,48,30.16,30.02,0,0,0,0.00
2013-6-16,87.3,75.3,65.5,73.4,66.1,59.3,84,74,62,30.18,30.05,0,0,0,0.00
2013-6-17,81.3,71.8,67.6,77.1,68.2,63.5,91,89,80,30.14,29.97,0,0,0,1.53
2013-6-18,82.0,72.3,67.5,74.6,68.7,65.0,93,89,75,30.01,29.89,0,0,0,0.41
2013-6-19,78.6,73.3,68.5,70.5,67.8,65.5,90,83,73,30.11,29.94,0,0,0,0.10
2013-6-20,84.4,74.1,67.3,71.2,66.4,63.9,90,78,62,30.21,30.10,0,0,0,0.00
2013-6-21,85.6,75.1,67.1,69.5,64.9,62.0,86,72,56,30.26,30.17,0,0,0,0.00
2013-6-22,88.7,75.3,66.6,67.9,64.2,61.2,84,69,49,30.25,30.11,0,0,0,0.00
2013-6-23,84.6,74.9,68.2,72.4,67.4,63.5,86,78,66,30.23,30.12,0,0,0,0.00
2013-6-24,85.5,75.5,70.3,72.9,68.6,66.2,88,79,64,30.26,30.15,0,0,0,0.00
2013-6-25,86.4,76.8,70.3,72.7,68.9,65.9,87,77,63,30.20,30.08,0,0,57,0.00
2013-6-26,85.6,78.0,72.1,75.5,71.0,67.4,91,80,66,30.13,29.98,0,0,0,0.29
2013-6-27,86.5,78.9,72.9,99.9,72.1,68.8,88,78,68,30.03,29.87,0,0,0,0.26
2013-6-28,88.0,80.4,73.2,99.9,73.1,68.7,92,74,60,29.91,29.71,0,0,0,0.29
2013-6-29,85.8,76.1,70.7,74.1,69.6,67.6,91,81,63,29.79,29.70,0,0,0,0.20
2013-6-30,84.9,75.4,69.3,70.4,67.3,64.5,88,77,61,29.84,29.74,0,0,0,0.00
2013-7-1,84.6,74.4,68.2,73.6,67.7,63.2,86,80,68,29.95,29.82,0,0,0,0.00
2013-7-2,86.5,76.3,70.2,73.9,68.6,65.7,87,77,62,30.11,29.94,0,0,0,0.00
2013-7-3,75.0,71.4,67.3,71.3,67.4,63.9,91,87,79,30.19,30.08,0,0,0,1.37
2013-7-4,74.5,70.0,67.6,72.0,67.6,64.9,93,92,91,30.20,30.10,0,0,0,0.98
2013-7-5,77.7,71.1,68.5,75.3,68.8,66.0,94,92,90,30.23,30.15,0,0,0,0.49
2013-7-6,79.5,72.0,68.7,77.0,69.8,66.3,94,93,92,30.19,30.10,0,0,0,0.84
2013-7-7,75.0,72.5,70.3,73.2,70.5,68.2,94,93,93,30.20,30.13,0,0,0,0.33
2013-7-8,84.9,75.5,69.1,80.7,72.6,67.2,94,91,83,30.23,30.13,0,0,0,0.04
2013-7-9,85.6,77.4,71.2,76.7,72.2,68.4,92,84,72,30.21,30.09,0,0,0,0.00
2013-7-10,81.3,75.7,73.2,78.1,72.1,69.5,92,89,82,30.14,30.00,0,0,0,0.26
2013-7-11,75.9,73.6,72.0,73.5,71.0,69.2,92,92,89,30.02,29.91,0,0,0,0.06
2013-7-12,84.0,74.5,70.7,81.4,72.0,67.8,94,92,85,29.97,29.89,0,0,0,0.04
2013-7-13,75.0,71.5,68.2,71.9,68.6,65.4,92,90,89,30.09,29.97,0,0,0,0.06
2013-7-14,80.8,74.5,70.5,75.2,70.8,67.8,93,88,80,30.21,30.06,0,0,0,0.20
2013-7-15,84.0,74.8,70.9,75.6,71.0,68.4,93,88,74,30.30,30.20,0,0,0,0.29
2013-7-16,87.1,76.7,70.3,76.1,70.9,67.9,93,83,68,30.33,30.26,0,0,0,0.12
2013-7-17,91.6,76.4,69.1,77.4,69.9,64.7,92,81,60,30.30,30.16,0,0,0,1.24
2013-7-18,86.7,75.9,67.8,77.7,70.9,65.7,93,85,72,30.29,30.08,0,0,0,1.31
2013-7-19,89.4,78.7,72.1,76.9,72.0,68.8,91,81,65,30.16,30.01,0,0,0,0.00
2013-7-20,87.6,75.8,71.2,77.5,70.5,66.8,91,84,70,30.08,29.98,0,0,0,0.08
2013-7-21,84.7,75.1,70.5,76.6,70.8,67.5,92,87,72,30.08,29.96,0,0,0,0.24
2013-7-22,81.3,74.7,70.0,74.4,71.0,67.5,92,88,78,30.05,29.92,0,0,0,0.37
2013-7-23,81.1,74.1,70.7,73.6,69.2,67.1,90,85,72,30.02,29.88,0,0,0,0.04
2013-7-24,80.8,75.0,70.0,73.8,70.0,66.9,91,84,75,29.95,29.84,0,0,0,0.04
2013-7-25,90.5,78.1,70.9,76.0,69.5,66.2,89,76,60,30.03,29.87,0,0,2,0.00
2013-7-26,88.2,75.7,70.0,77.6,70.0,65.6,88,83,69,30.09,30.00,0,0,0,0.06
2013-7-27,77.7,74.1,70.7,73.0,69.6,67.5,91,86,77,30.04,29.95,0,0,0,0.04
2013-7-28,84.9,76.0,69.6,73.4,69.0,65.9,90,79,65,30.07,29.97,0,0,0,0.00
2013-7-29,86.5,75.8,69.1,68.6,64.6,57.4,85,70,41,30.19,30.05,0,0,2,0.00
2013-7-30,93.9,77.2,65.5,68.6,63.9,59.7,83,65,43,30.22,30.13,0,0,0,0.00
2013-7-31,77.2,72.9,70.0,71.4,68.4,64.8,91,86,72,30.18,30.01,0,0,0,0.59
2013-8-1,81.9,75.3,70.3,76.4,71.2,68.2,93,87,76,30.05,29.95,0,0,0,0.14
2013-8-2,87.6,77.4,69.3,76.6,69.1,65.7,90,77,58,30.06,29.96,0,0,0,0.00
2013-8-3,85.3,77.3,69.6,72.2,68.8,65.1,87,76,62,30.10,30.03,0,0,0,0.00
2013-8-4,85.8,79.4,74.3,74.1,70.6,66.9,86,75,63,30.07,29.99,0,0,0,0.00
2013-8-5,85.8,77.2,71.2,76.0,69.0,64.2,82,76,70,30.08,30.00,0,0,0,0.00
2013-8-6,82.6,76.4,73.6,72.6,69.7,67.6,87,80,72,30.04,29.98,0,0,0,0.00
2013-8-7,80.2,75.5,72.5,76.6,71.8,69.4,92,88,82,30.09,30.01,0,0,0,1.16
2013-8-8,80.1,74.6,71.8,77.5,72.2,69.3,93,92,91,30.10,30.03,0,0,0,0.53
2013-8-9,85.6,78.3,72.1,80.6,74.3,70.0,94,88,78,30.13,30.05,0,0,0,0.12
2013-8-10,88.5,78.1,72.3,77.9,72.2,68.9,90,83,67,30.17,30.10,0,0,0,0.16
2013-8-11,88.5,78.0,71.4,77.3,71.6,68.4,92,81,62,30.20,30.10,0,0,0,0.16
2013-8-12,89.4,77.5,72.3,79.2,72.2,68.9,90,84,69,30.17,30.05,0,0,0,0.24
2013-8-13,84.9,76.8,71.4,75.8,71.3,68.7,92,84,71,30.07,29.93,0,0,0,0.10
2013-8-14,82.2,74.1,69.6,74.7,70.0,67.2,92,87,74,30.05,29.93,0,0,0,0.45
2013-8-15,71.1,68.6,66.7,67.2,64.3,60.4,92,86,78,30.11,30.02,0,0,0,0.33
2013-8-16,66.9,64.0,61.9,62.3,60.5,58.8,92,88,79,30.14,30.06,0,0,0,0.33
2013-8-17,65.3,63.2,61.5,63.2,60.7,58.9,93,91,88,30.16,30.10,0,0,0,0.14
2013-8-18,73.0,69.0,65.3,71.0,67.0,63.0,94,93,93,30.22,30.12,0,0,0,0.59
2013-8-19,79.3,72.1,69.6,77.5,70.1,67.8,94,93,92,30.18,30.08,0,0,0,0.59
2013-8-20,78.1,73.3,70.5,75.0,70.7,68.4,94,92,88,30.21,30.11,0,0,0,0.02
2013-8-21,77.5,72.4,68.2,74.9,70.0,66.0,94,92,90,30.26,30.14,0,0,0,0.63
2013-8-22,89.2,76.5,68.9,78.8,71.1,66.8,93,84,64,30.20,30.08,0,0,0,0.53
2013-8-23,88.3,77.3,70.0,75.4,70.3,67.2,91,80,63,30.13,30.01,0,0,0,0.00
2013-8-24,83.5,74.5,69.3,73.1,68.8,65.6,92,83,70,30.27,30.05,0,0,0,0.29
2013-8-25,83.8,73.0,66.2,69.0,64.1,59.7,86,74,58,30.38,30.26,0,0,0,0.00
2013-8-26,84.9,71.1,61.9,67.1,61.5,57.3,86,73,55,30.33,30.18,0,0,0,0.00
2013-8-27,85.3,73.3,64.2,70.4,64.8,60.0,87,75,58,30.21,30.07,0,0,0,0.00
2013-8-28,88.2,76.5,68.4,74.5,68.8,64.3,88,78,64,30.10,30.01,0,0,0,0.00
2013-8-29,90.3,80.6,72.7,76.1,71.6,67.9,86,75,61,30.06,29.97,0,0,0,0.00
2013-8-30,83.1,78.7,75.0,75.6,72.4,70.1,86,81,76,30.06,29.97,0,0,0,0.00
2013-8-31,86.5,77.8,72.3,79.9,72.5,69.3,90,84,75,30.02,29.92,0,0,0,0.55
2013-9-1,86.7,75.0,71.6,77.7,71.0,68.4,91,88,72,29.99,29.91,0,0,0,0.12
2013-9-2,75.4,71.7,68.2,71.6,68.9,65.6,93,91,87,30.02,29.92,0,0,0,0.31
2013-9-3,86.5,76.8,70.7,76.4,70.8,67.9,92,82,67,30.02,29.92,0,0,0,0.02
2013-9-4,86.4,76.9,70.3,75.5,69.1,65.9,90,78,61,30.13,30.01,0,0,0,0.00
2013-9-5,87.6,77.5,70.3,73.8,68.4,65.6,86,74,59,30.17,30.09,0,0,0,0.00
2013-9-6,88.0,76.4,69.8,71.6,67.0,64.9,86,74,55,30.18,30.08,27,0,27,0.00
2013-9-7,86.9,75.3,66.6,71.0,65.8,62.1,86,73,57,30.16,30.04,0,0,0,0.00
2013-9-8,85.6,76.6,68.2,72.8,67.5,63.5,86,74,63,30.07,29.98,0,0,0,0.00
2013-9-9,90.1,78.2,70.9,73.8,68.8,66.0,86,74,57,30.14,30.02,0,0,0,0.00
2013-9-10,90.1,77.4,70.0,74.5,68.2,65.4,87,74,58,30.25,30.14,0,0,0,0.00
2013-9-11,87.1,76.9,68.9,73.3,66.4,63.7,86,71,52,30.26,30.13,0,0,0,0.00
2013-9-12,86.7,76.1,68.7,71.4,67.0,62.7,83,74,58,30.15,29.95,0,0,0,0.02
2013-9-13,85.8,76.6,69.6,70.5,64.5,56.2,82,67,52,29.99,29.86,0,0,0,0.02
2013-9-14,81.0,69.7,58.8,60.6,56.4,51.6,78,63,49,30.09,29.94,0,0,0,0.00
2013-9-15,79.5,71.5,64.2,70.3,64.1,58.3,84,78,71,30.19,30.08,0,0,0,0.00
2013-9-16,86.0,75.4,68.7,73.4,65.3,59.4,87,72,54,30.18,30.08,0,0,0,0.00
2013-9-17,76.6,71.5,68.7,65.1,62.0,59.8,77,72,67,30.25,30.13,0,0,0,0.00
2013-9-18,74.1,69.2,65.5,64.0,60.5,57.9,82,74,68,30.27,30.16,0,0,0,0.00
2013-9-19,84.0,71.0,61.5,67.0,61.6,57.0,85,73,56,30.21,30.11,0,0,0,0.00
2013-9-20,86.5,73.7,64.6,70.5,64.2,59.3,84,73,56,30.12,29.95,0,0,0,0.00
2013-9-21,73.2,68.6,64.6,67.3,63.9,61.7,90,85,75,29.97,29.77,0,0,0,0.73
2013-9-22,76.6,67.5,58.8,68.1,61.1,55.6,90,80,65,29.91,29.80,0,0,0,0.02
2013-9-23,79.0,69.2,60.6,67.3,60.5,56.0,86,74,61,30.04,29.90,0,0,0,0.02
2013-9-24,69.6,66.3,64.4,62.2,60.9,59.7,88,83,73,30.07,29.92,0,0,0,0.02
2013-9-25,65.5,63.7,62.4,99.9,61.3,59.8,91,89,86,29.94,29.86,0,0,0,0.63
2013-9-26,72.5,65.7,60.4,67.2,62.0,57.7,91,88,82,30.05,29.91,0,0,0,0.02
2013-9-27,75.4,67.1,59.7,63.2,59.4,55.9,88,77,62,30.17,30.04,0,0,0,0.00
2013-9-28,73.2,64.9,58.6,59.8,56.2,53.8,85,74,59,30.25,30.14,0,0,0,0.00
2013-9-29,73.0,64.1,57.6,59.3,55.4,51.9,83,74,60,30.18,30.05,0,0,0,0.00
2013-9-30,73.6,64.4,56.8,63.0,57.0,52.3,86,77,64,30.13,30.03,0,0,0,0.00
2013-10-1,77.4,67.1,59.2,65.8,59.7,55.3,87,78,64,30.19,30.08,0,0,0,0.00
2013-10-2,80.8,69.1,61.2,66.5,60.8,57.0,86,76,59,30.20,30.10,0,0,0,0.00
2013-10-3,79.9,70.5,63.1,66.1,61.7,58.5,85,74,60,30.18,30.10,0,0,0,0.00
2013-10-4,82.2,71.2,63.7,66.8,62.3,58.4,85,74,59,30.20,30.11,0,0,0,0.00
2013-10-5,82.4,72.3,64.4,70.2,63.3,59.5,85,74,60,30.17,30.05,0,0,0,0.00
2013-10-6,81.1,71.0,64.2,68.9,63.8,60.0,89,79,63,30.08,29.89,0,0,0,1.75
2013-10-7,68.4,63.2,57.9,62.3,57.8,51.6,90,83,72,29.99,29.87,0,0,0,2.02
2013-10-8,69.8,63.3,58.1,61.2,56.3,51.6,85,78,70,30.17,29.98,0,0,0,0.06
2013-10-9,70.5,63.2,56.1,63.3,56.2,50.8,86,78,63,30.22,30.13,0,0,0,0.00
2013-10-10,74.5,64.6,56.3,61.5,56.1,51.5,86,75,61,30.17,30.05,0,0,0,0.00
2013-10-11,74.5,65.9,57.4,60.6,55.6,52.9,86,71,51,30.09,30.00,0,0,0,0.00
2013-10-12,76.1,66.8,58.1,62.6,57.0,53.1,84,71,57,30.12,30.02,0,0,0,0.00
2013-10-13,76.5,68.2,60.6,65.3,59.4,55.2,84,74,61,30.21,30.11,0,0,0,0.00
2013-10-14,75.9,67.7,64.0,65.5,60.8,59.3,85,79,69,30.23,30.14,0,0,0,0.00
2013-10-15,67.6,64.5,21.9,59.8,58.4,15.8,84,81,75,30.18,30.07,0,0,0,0.00
2013-10-16,71.8,64.7,57.7,63.1,58.5,53.7,88,81,71,30.10,30.00,0,0,0,0.00
2013-10-17,69.6,65.6,61.7,65.9,61.7,58.5,90,87,83,30.02,29.92,0,0,0,0.18
2013-10-18,67.6,60.5,53.2,59.8,53.8,49.6,89,79,63,30.05,29.97,0,0,0,0.06
2013-10-19,60.6,58.4,56.1,56.1,53.6,51.6,88,84,78,30.01,29.96,0,0,0,0.06
2013-10-20,66.7,55.7,46.6,56.8,46.5,42.6,87,73,50,30.09,29.99,0,0,0,0.02
2013-10-21,67.8,57.8,48.0,58.0,49.9,41.3,84,75,66,30.15,30.04,0,0,0,0.02
2013-10-22,66.9,61.4,58.1,57.8,55.0,51.3,87,80,67,30.06,29.89,0,0,0,0.00
2013-10-23,64.8,55.0,48.2,52.0,44.1,35.8,85,68,50,30.11,29.88,0,0,0,0.00
2013-10-24,63.3,51.6,41.5,46.8,39.1,34.8,78,63,47,30.22,30.10,0,0,0,0.00
2013-10-25,56.1,47.5,38.8,41.4,33.2,28.4,70,58,45,30.38,30.20,0,0,0,0.00
2013-10-26,57.7,47.0,36.9,42.8,34.7,29.0,77,63,49,30.34,30.18,0,0,0,0.00
2013-10-27,64.4,54.4,44.2,54.3,45.4,37.3,82,72,63,30.18,30.12,0,0,0,0.00
2013-10-28,62.6,58.7,55.4,57.5,53.5,50.0,87,83,77,30.29,30.14,0,0,0,0.02
2013-10-29,70.3,61.4,54.0,60.5,54.8,50.1,87,79,68,30.35,30.25,0,0,0,0.02
2013-10-30,73.2,63.4,55.9,63.5,56.2,51.6,87,78,62,30.33,30.18,0,0,0,0.00
2013-10-31,72.5,64.8,57.4,63.6,58.1,52.7,85,79,73,30.21,29.92,0,0,0,0.00
2013-11-1,69.6,65.5,59.7,63.1,58.7,49.1,89,79,63,29.92,29.75,0,0,2,0.45
2013-11-2,99.9,58.6,51.4,52.2,45.3,39.3,79,63,46,30.08,29.85,2,0,5,0.04
2013-11-3,61.0,53.1,46.2,48.1,40.8,38.5,77,64,48,30.31,30.08,0,0,0,0.00
2013-11-4,60.8,51.9,45.1,45.2,40.0,37.6,79,65,49,30.44,30.31,0,0,2,0.00
2013-11-5,61.3,52.5,44.4,44.1,39.0,34.1,71,61,48,30.46,30.33,0,0,0,0.00
2013-11-6,68.5,58.6,51.4,58.8,51.9,44.1,86,79,69,30.35,30.13,0,0,0,0.00
2013-11-7,61.7,55.9,46.8,58.3,48.3,34.6,89,76,62,30.23,30.06,0,0,0,0.12
2013-11-8,58.1,48.7,40.8,38.0,33.5,30.8,69,56,40,30.34,30.22,0,0,0,0.04
2013-11-9,57.2,49.0,39.9,40.5,37.0,31.9,75,64,51,30.36,30.24,0,0,0,0.00
2013-11-10,65.8,55.7,48.4,46.6,42.1,39.0,76,61,46,30.30,30.20,0,0,0,0.00
2013-11-11,61.7,53.1,44.2,39.7,36.8,33.7,69,55,42,30.32,30.19,0,0,0,0.00
2013-11-12,60.6,47.3,33.6,43.4,34.2,18.6,74,61,50,30.44,30.15,3,0,3,0.00
2013-11-13,47.1,37.7,28.2,27.4,20.3,17.6,64,50,36,30.57,30.44,0,0,0,0.00
2013-11-14,54.3,41.7,30.6,30.0,23.7,19.9,67,50,34,30.48,30.31,0,0,0,0.00
2013-11-15,51.6,47.2,41.2,45.3,37.1,23.0,85,69,48,30.32,30.15,0,0,0,0.08
2013-11-16,63.5,54.9,46.2,57.7,50.5,42.0,88,85,80,30.25,30.14,0,0,0,0.06
2013-11-17,65.8,61.2,58.1,62.8,57.6,53.6,90,88,85,30.18,29.96,0,0,0,0.02
2013-11-18,68.0,62.6,51.6,64.5,50.0,36.3,91,66,42,30.07,29.93,0,0,0,0.02
2013-11-19,59.5,50.7,43.0,39.6,34.7,30.8,63,54,47,30.18,30.04,0,0,0,0.02
2013-11-20,55.6,48.6,41.7,36.7,33.0,29.0,63,55,48,30.34,30.18,0,0,0,0.00
2013-11-21,57.0,51.9,48.4,46.1,41.9,35.5,80,69,57,30.40,30.31,0,0,0,0.00
2013-11-22,62.4,56.5,51.6,56.1,51.3,45.9,87,82,79,30.36,30.20,0,0,0,0.06
2013-11-23,59.5,52.7,40.8,55.7,45.4,29.2,89,77,59,30.26,30.15,0,0,0,0.08
2013-11-24,45.1,37.8,30.6,29.2,22.1,18.5,64,54,41,30.45,30.25,0,0,0,0.00
2013-11-25,46.2,38.7,30.2,25.6,21.0,15.6,58,49,40,30.46,30.20,0,0,0,0.00
2013-11-26,46.9,38.1,34.3,99.9,35.0,24.7,89,82,51,30.20,29.67,0,0,114,1.00
2013-11-27,43.3,34.4,27.7,40.3,27.3,18.5,89,75,62,30.26,29.68,0,0,57,0.24
2013-11-28,46.4,33.7,23.5,28.1,22.1,17.1,77,63,47,30.46,30.26,0,0,0,0.02
2013-11-29,55.8,41.1,29.1,32.5,26.1,21.7,76,57,36,30.51,30.42,0,0,0,0.00
2013-11-30,52.0,42.5,35.4,31.5,28.0,25.3,67,57,45,30.54,30.33,0,0,0,0.00
2013-12-1,57.6,47.7,40.8,41.7,33.9,27.2,69,59,53,30.34,30.04,0,0,0,0.00
2013-12-2,52.5,48.8,45.1,48.1,43.2,36.5,87,81,69,30.04,29.85,0,0,0,0.20
2013-12-3,56.5,53.2,49.3,53.3,49.8,45.8,89,88,87,29.92,29.85,0,0,0,0.53
2013-12-4,176.4,60.9,56.1,99.9,59.8,53.2,90,85,81,30.06,29.93,0,0,0,0.08
2013-12-5,70.9,66.1,62.8,99.9,63.2,59.6,91,89,88,30.11,30.01,0,0,0,0.08
2013-12-6,72.9,68.3,57.9,67.2,63.9,54.4,90,86,80,30.09,30.01,0,0,0,0.14
2013-12-7,57.6,45.9,41.5,54.4,41.6,38.2,89,85,78,30.30,30.09,0,0,0,0.16
2013-12-8,48.2,44.9,41.5,45.2,42.2,39.1,91,90,87,30.29,30.19,0,0,0,0.18
2013-12-9,48.6,44.2,40.8,46.1,41.7,38.1,91,91,90,30.20,30.03,0,0,0,0.96
2013-12-10,49.6,44.3,33.4,47.1,38.8,27.1,92,81,65,30.34,29.97,0,0,0,0.12
2013-12-11,50.7,40.6,29.1,37.8,30.8,24.9,85,69,54,30.43,30.31,0,0,0,0.08
2013-12-12,44.6,38.5,31.8,30.2,23.5,18.6,72,55,41,30.45,30.34,0,0,0,0.00
2013-12-13,53.4,41.9,28.9,30.4,24.1,17.0,65,50,35,30.38,30.16,0,0,0,0.00
2013-12-14,52.3,48.6,45.1,48.8,42.4,30.2,90,80,54,30.18,29.84,0,0,0,0.63
2013-12-15,51.6,40.2,32.9,48.7,34.7,27.4,90,81,74,30.20,29.85,0,0,0,0.08
2013-12-16,52.9,39.4,30.4,35.1,30.2,26.2,86,71,48,30.27,30.18,0,0,0,0.00
2013-12-17,59.4,47.7,36.0,38.5,33.5,28.4,75,59,41,30.24,30.11,0,0,0,0.00
2013-12-18,51.1,43.3,36.3,36.7,24.3,20.9,63,48,32,30.34,30.18,0,0,0,0.00
2013-12-19,60.1,45.7,33.4,34.1,27.9,21.8,66,51,35,30.33,30.20,0,0,0,0.00
2013-12-20,58.1,48.7,40.8,47.4,37.7,27.0,80,66,52,30.24,30.13,0,0,0,0.00
2013-12-21,68.7,60.9,51.1,63.7,56.1,45.8,88,84,80,30.13,29.96,0,0,0,0.00
2013-12-22,68.5,61.1,56.7,63.5,57.6,53.5,91,88,84,30.09,29.92,0,0,0,2.67
2013-12-23,57.0,48.5,36.7,54.4,44.5,30.8,91,86,78,30.27,30.06,0,0,0,0.82
2013-12-24,39.0,34.4,29.8,31.1,25.2,19.8,81,69,55,30.40,30.26,0,0,0,0.02
2013-12-25,45.0,36.0,28.2,28.4,23.7,19.4,71,61,52,30.46,30.32,0,0,0,0.00
2013-12-26,51.6,41.6,32.9,31.8,26.8,22.7,67,56,45,30.38,30.27,0,0,0,0.00
2013-12-27,50.9,41.6,32.4,34.0,28.3,23.3,71,59,49,30.45,30.32,0,0,0,0.00
2013-12-28,46.2,40.4,35.8,36.8,31.7,25.8,88,71,59,30.39,29.98,0,0,0,0.92
2013-12-29,47.7,43.7,39.9,43.4,40.0,36.6,90,87,83,30.07,29.87,0,0,0,0.94
2013-12-30,48.7,44.8,40.6,42.4,40.0,36.9,88,83,77,30.22,30.06,0,0,0,0.02
2013-12-31,44.8,40.4,35.8,37.6,31.6,26.6,85,71,53,30.38,30.21,0,0,0,0.00
2014-1-1,47.5,41.2,34.9,36.1,32.1,26.6,76,70,61,30.36,30.14,0,0,0,0.00
2014-1-2,50.2,41.7,26.4,47.0,36.3,16.5,89,81,65,30.14,29.79,0,0,0,0.16